Time;durP1;ratioP1;P1;durP2;ratioP2;P2;SDS_P1;SDS_P2;PMS_P1;PMS_P2;Temp;Humidity;BMP_temperature;BMP_pressure;BME280_temperature;BME280_humidity;BME280_pressure;Samples;Min_cycle;Max_cycle;Signal;HPM_P1;HPM_P2
2023/04/10 00:00:44;;;;;;;3.47;1.93;;;12.90;99.90;;;13.62;52.08;101821.06;4880595;28;97952;-49
2023/04/10 00:03:11;;;;;;;4.13;2.00;;;13.00;99.90;;;13.70;51.96;101814.59;4885315;28;99412;-46
2023/04/10 00:05:37;;;;;;;2.97;1.73;;;13.10;99.90;;;13.76;51.48;101818.84;4860849;28;97261;-47
2023/04/10 00:08:03;;;;;;;4.03;1.83;;;13.20;99.90;;;13.75;51.72;101816.25;4880432;28;97277;-49
2023/04/10 00:10:30;;;;;;;5.77;2.30;;;13.10;99.90;;;13.74;51.45;101815.34;4881898;28;98923;-45
2023/04/10 00:12:57;;;;;;;4.67;2.60;;;13.10;99.90;;;13.72;51.47;101817.19;4878635;28;100551;-48
2023/04/10 00:15:23;;;;;;;3.83;2.27;;;13.00;99.90;;;13.68;51.90;101815.56;4878713;28;97511;-49
2023/04/10 00:17:53;;;;;;;2.27;1.60;;;13.00;99.90;;;13.70;51.93;101803.97;4884704;28;97895;-51
2023/04/10 00:20:21;;;;;;;3.40;2.07;;;13.00;99.90;;;13.73;51.77;101803.00;4874978;28;102723;-47
2023/04/10 00:22:46;;;;;;;2.70;2.07;;;13.00;99.90;;;13.74;51.04;101799.44;4878610;28;98771;-49
2023/04/10 00:25:12;;;;;;;4.97;2.07;;;13.10;99.90;;;13.72;51.95;101801.28;4881063;28;97513;-50
2023/04/10 00:27:38;;;;;;;3.20;1.80;;;13.00;99.90;;;13.76;51.63;101796.78;4879026;28;99871;-47
2023/04/10 00:30:07;;;;;;;5.07;2.13;;;13.10;99.90;;;13.80;51.56;101788.66;4884191;28;117548;-47
2023/04/10 00:32:33;;;;;;;3.23;2.00;;;13.10;99.90;;;13.85;51.57;101786.72;4901610;28;97758;-48
2023/04/10 00:34:59;;;;;;;5.93;2.90;;;13.20;99.90;;;13.86;51.18;101788.47;4909836;28;97156;-47
2023/04/10 00:37:25;;;;;;;2.87;2.20;;;13.20;99.90;;;13.79;51.45;101797.53;4911484;28;97059;-47
2023/04/10 00:59:21;;;;;;;6.73;2.80;;;12.90;99.90;;;14.39;47.68;101756.66;6009278;22;1955442;-50
2023/04/10 01:05:40;;;;;;;4.53;2.30;;;13.80;99.90;;;14.06;49.01;101757.78;6080922;22;101735;-50
2023/04/10 01:08:20;;;;;;;4.10;2.30;;;13.40;99.90;;;13.93;50.46;101760.84;6089135;22;97911;-50
2023/04/10 01:11:01;;;;;;;5.00;2.20;;;13.20;99.90;;;13.82;48.97;101760.31;6094232;23;97194;-50
2023/04/10 01:14:02;;;;;;;5.90;2.97;;;13.10;99.90;;;13.59;49.33;101754.84;6094468;22;97727;-49
2023/04/10 01:16:40;;;;;;;5.50;2.97;;;12.90;99.90;;;13.49;50.42;101761.38;6098082;22;101730;-52
2023/04/10 01:19:37;;;;;;;5.10;2.67;;;12.70;99.90;;;13.43;51.61;101772.13;6122634;22;98054;-47
2023/04/10 01:22:04;;;;;;;4.30;2.50;;;12.70;99.90;;;13.34;52.31;101749.44;6125051;22;96582;-50
2023/04/10 01:24:49;;;;;;;3.60;2.00;;;12.60;99.90;;;13.34;52.61;101752.97;6123536;22;97503;-52
2023/04/10 01:27:51;;;;;;;5.07;2.37;;;12.60;99.90;;;13.35;52.75;101751.19;6120003;22;97884;-46
2023/04/10 01:30:19;;;;;;;4.13;2.07;;;12.60;99.90;;;13.41;52.67;101735.06;5995568;23;97714;-46
2023/04/10 01:32:45;;;;;;;5.30;2.23;;;12.70;99.90;;;13.45;52.53;101727.88;6098680;22;96703;-51
2023/04/10 01:35:14;;;;;;;4.50;2.80;;;12.80;99.90;;;13.51;52.10;101727.72;6119120;22;97510;-48
2023/04/10 01:37:42;;;;;;;4.53;2.10;;;12.90;99.90;;;13.55;52.44;101726.69;6123134;22;97683;-46
2023/04/10 01:40:13;;;;;;;3.60;2.43;;;12.90;99.90;;;13.57;52.15;101716.91;6122937;22;97477;-46
2023/04/10 01:42:46;;;;;;;3.40;2.60;;;12.90;99.90;;;13.56;51.13;101720.47;6124276;22;97283;-49
2023/04/10 01:45:18;;;;;;;3.67;2.70;;;12.90;99.90;;;13.54;51.50;101717.88;6122503;22;97790;-52
2023/04/10 01:47:44;;;;;;;3.37;2.07;;;12.80;99.90;;;13.49;52.42;101719.81;6126850;22;97701;-49
2023/04/10 01:50:11;;;;;;;3.90;1.93;;;12.70;99.90;;;13.52;52.35;101724.16;6120795;22;98432;-47
2023/04/10 01:52:37;;;;;;;3.83;2.50;;;12.80;99.90;;;13.50;52.16;101710.09;6122460;22;99933;-48
2023/04/10 01:55:05;;;;;;;1.93;1.30;;;12.80;99.90;;;13.42;52.34;101712.97;6125253;22;97373;-48
2023/04/10 01:57:31;;;;;;;4.33;2.30;;;12.70;99.90;;;13.40;52.15;101715.66;6119570;22;97590;-50
2023/04/10 01:59:57;;;;;;;4.40;2.30;;;12.70;99.90;;;13.42;52.62;101712.97;6111359;22;103994;-50
2023/04/10 02:02:23;;;;;;;3.90;2.10;;;12.70;99.90;;;13.44;52.63;101704.94;6123217;22;97132;-48
2023/04/10 02:04:51;;;;;;;2.87;1.70;;;12.70;99.90;;;13.41;52.64;101705.91;6118262;22;107031;-49
2023/04/10 02:07:35;;;;;;;3.63;2.03;;;12.70;99.90;;;13.46;52.70;101692.56;6113537;22;101460;-48
2023/04/10 02:10:09;;;;;;;4.37;2.97;;;12.70;99.90;;;13.43;52.47;101687.31;6118161;22;97771;-47
2023/04/10 02:12:45;;;;;;;8.70;3.40;;;12.70;99.90;;;13.34;51.03;101704.38;6128293;22;96955;-47
2023/04/10 02:15:11;;;;;;;4.57;2.63;;;12.60;99.90;;;13.25;52.51;101694.94;6119271;22;98195;-45
2023/04/10 02:17:38;;;;;;;3.97;2.43;;;12.50;99.90;;;13.27;52.62;101690.44;6124375;22;126588;-50
2023/04/10 02:20:07;;;;;;;4.87;2.77;;;12.50;99.90;;;13.31;52.91;101689.47;6118718;22;97560;-47
2023/04/10 02:22:34;;;;;;;4.33;2.50;;;12.60;99.90;;;13.34;52.85;101686.72;6122676;22;97418;-50
2023/04/10 02:25:03;;;;;;;7.00;3.30;;;12.60;99.90;;;13.30;50.33;101693.00;6123812;22;97032;-47
2023/04/10 02:27:34;;;;;;;4.17;2.23;;;12.60;99.90;;;13.22;52.29;101681.78;6093291;22;98948;-49
2023/04/10 02:30:02;;;;;;;3.83;1.90;;;12.50;99.90;;;13.19;53.05;101684.53;6112501;22;98050;-52
2023/04/10 02:32:28;;;;;;;3.13;2.33;;;12.40;99.90;;;13.29;53.30;101680.66;6124045;22;97490;-49
2023/04/10 02:34:55;;;;;;;6.77;3.67;;;12.50;99.90;;;13.28;51.35;101684.22;6115129;22;97636;-46
2023/04/10 02:37:21;;;;;;;3.30;2.37;;;12.50;99.90;;;13.28;52.59;101681.56;6117185;22;97735;-48
2023/04/10 02:39:47;;;;;;;4.43;2.90;;;12.50;99.90;;;13.25;51.13;101689.63;6121228;22;97132;-46
2023/04/10 02:42:13;;;;;;;4.77;2.90;;;12.50;99.90;;;13.21;51.72;101690.63;6115985;22;98021;-48
2023/04/10 02:44:39;;;;;;;4.77;3.07;;;12.40;99.90;;;13.16;51.12;101694.28;6121339;22;97239;-50
2023/04/10 02:47:05;;;;;;;5.07;2.50;;;12.40;99.90;;;12.99;51.43;101697.44;6117574;22;97150;-46
2023/04/10 02:49:34;;;;;;;5.13;2.97;;;12.20;99.90;;;12.92;51.25;101691.47;6114837;22;97597;-46
2023/04/10 02:52:01;;;;;;;5.00;2.57;;;12.10;99.90;;;12.90;52.59;101687.13;6117541;22;97291;-48
2023/04/10 02:54:26;;;;;;;6.70;2.50;;;12.10;99.90;;;12.92;53.64;101685.31;6119954;22;97940;-49
2023/04/10 02:56:52;;;;;;;2.10;1.63;;;12.10;99.90;;;12.93;53.88;101687.91;6118386;22;97208;-52
2023/04/10 02:59:19;;;;;;;2.47;1.93;;;12.20;99.90;;;13.06;53.78;101680.47;6122376;22;104236;-48
2023/04/10 03:01:46;;;;;;;3.10;1.77;;;12.30;99.90;;;13.20;53.56;101680.97;6124193;22;97512;-48
2023/04/10 03:04:12;;;;;;;3.53;1.87;;;12.60;99.90;;;13.34;52.96;101668.16;6115489;22;97382;-48
2023/04/10 03:06:37;;;;;;;3.20;2.00;;;12.80;99.90;;;13.51;52.70;101662.31;6123697;22;97554;-50
2023/04/10 03:09:03;;;;;;;3.47;2.30;;;13.10;99.90;;;13.65;52.07;101661.88;6113459;22;98121;-49
2023/04/10 03:11:29;;;;;;;3.13;1.77;;;13.30;99.90;;;13.72;51.96;101663.41;6119883;22;97148;-47
2023/04/10 03:13:57;;;;;;;4.20;2.73;;;13.30;99.90;;;13.78;50.62;101660.56;6116574;22;99045;-46
2023/04/10 03:16:23;;;;;;;5.30;2.83;;;13.40;99.90;;;13.64;47.31;101671.63;6117701;22;97471;-51
2023/04/10 03:18:49;;;;;;;2.67;1.80;;;13.10;99.90;;;13.70;51.96;101665.22;6122130;22;97081;-50
2023/04/10 03:21:15;;;;;;;3.07;1.57;;;13.10;99.90;;;13.75;51.77;101668.63;6114682;22;98567;-47
2023/04/10 03:23:41;;;;;;;1.60;1.40;;;13.10;99.90;;;13.81;51.73;101657.81;6119032;22;97306;-51
2023/04/10 03:26:07;;;;;;;2.13;1.67;;;13.30;99.90;;;13.91;51.35;101656.59;6116473;22;119700;-49
2023/04/10 03:28:35;;;;;;;4.07;1.90;;;13.40;99.90;;;14.03;50.95;101646.44;6118649;22;97609;-51
2023/04/10 03:31:02;;;;;;;3.90;1.90;;;13.70;99.90;;;14.12;50.91;101649.66;6115378;22;97339;-50
2023/04/10 03:33:28;;;;;;;3.47;2.17;;;13.80;99.90;;;14.22;50.39;101643.13;6123316;22;97368;-46
2023/04/10 03:35:54;;;;;;;2.67;1.73;;;13.90;99.90;;;14.33;50.06;101640.09;6114837;22;98712;-47
2023/04/10 03:38:20;;;;;;;2.67;1.80;;;14.10;99.90;;;14.42;50.13;101623.81;6117400;22;118597;-49
2023/04/10 03:40:45;;;;;;;3.57;1.70;;;14.20;99.90;;;14.49;49.73;101635.13;6117505;22;97442;-49
2023/04/10 03:43:11;;;;;;;2.80;1.83;;;14.30;99.90;;;14.53;49.45;101631.44;6113217;22;108888;-47
2023/04/10 03:45:37;;;;;;;3.70;2.10;;;14.20;99.90;;;14.56;49.78;101632.19;6120641;22;108100;-50
2023/04/10 03:48:03;;;;;;;2.40;1.40;;;14.30;99.90;;;14.60;49.18;101624.97;6114076;22;116229;-47
2023/04/10 03:50:29;;;;;;;2.77;1.73;;;14.30;99.90;;;14.63;49.10;101629.31;6116385;22;97726;-50
2023/04/10 03:52:55;;;;;;;2.70;1.80;;;14.40;99.90;;;14.67;49.04;101625.63;6118045;22;97919;-48
2023/04/10 03:55:20;;;;;;;4.40;1.97;;;14.40;99.90;;;14.70;49.06;101618.41;6119779;22;100928;-50
2023/04/10 03:57:47;;;;;;;2.47;1.40;;;14.50;99.90;;;14.75;48.77;101623.53;6124600;22;114727;-51
2023/04/10 04:00:14;;;;;;;2.47;1.60;;;14.60;99.90;;;14.80;48.80;101618.94;6120836;22;97326;-47
2023/04/10 04:02:40;;;;;;;2.17;1.70;;;14.60;99.90;;;14.90;48.63;101617.66;6125531;22;97171;-47
2023/04/10 04:05:06;;;;;;;2.80;1.83;;;14.80;99.90;;;14.98;48.40;101602.28;6125153;22;97812;-50
2023/04/10 04:07:32;;;;;;;2.43;1.50;;;14.90;99.90;;;15.08;48.25;101608.09;6120279;22;100504;-45
2023/04/10 04:09:59;;;;;;;3.23;1.70;;;15.10;99.90;;;15.14;47.57;101603.41;6115758;22;97207;-48
2023/04/10 04:12:25;;;;;;;3.40;1.53;;;15.10;99.90;;;15.22;47.66;101607.56;6123224;22;97650;-47
2023/04/10 04:14:51;;;;;;;2.50;1.77;;;15.20;99.90;;;15.29;47.64;101606.38;6114095;22;99383;-48
2023/04/10 04:17:17;;;;;;;2.67;1.40;;;15.30;99.90;;;15.33;47.26;101598.19;6114657;22;104216;-50
2023/04/10 04:19:43;;;;;;;2.93;1.80;;;15.40;99.90;;;15.32;47.58;101595.59;6116893;22;101089;-52
2023/04/10 04:22:09;;;;;;;1.80;1.70;;;15.30;99.90;;;15.16;46.50;101600.69;6112120;22;97332;-53
2023/04/10 04:24:35;;;;;;;3.30;1.60;;;15.00;99.90;;;15.05;47.56;101600.25;6119987;22;97274;-51
2023/04/10 04:27:01;;;;;;;3.97;1.90;;;14.70;99.90;;;14.91;47.84;101616.72;6113979;22;125829;-51
2023/04/10 04:29:27;;;;;;;2.77;1.97;;;14.50;99.90;;;14.74;48.35;101613.81;6115438;22;103639;-51
2023/04/10 04:31:53;;;;;;;3.67;2.43;;;14.30;99.90;;;14.70;48.71;101604.25;6118778;22;96924;-50
2023/04/10 04:34:18;;;;;;;2.60;1.40;;;14.20;99.90;;;14.59;48.62;101613.47;6115497;22;108172;-52
2023/04/10 04:36:44;;;;;;;4.07;1.97;;;14.20;99.90;;;14.58;49.18;101613.53;6117053;22;111331;-52
2023/04/10 04:39:10;;;;;;;3.17;1.93;;;14.20;99.90;;;14.54;47.86;101612.78;6113662;22;97675;-52
2023/04/10 04:41:36;;;;;;;2.93;1.03;;;14.10;99.90;;;14.52;48.65;101614.66;6115966;22;109462;-51
2023/04/10 04:44:04;;;;;;;2.97;1.60;;;14.10;99.90;;;14.53;49.17;101615.50;6116359;22;111868;-49
2023/04/10 04:46:29;;;;;;;2.47;1.73;;;14.10;99.90;;;14.58;49.37;101606.44;6117900;22;97684;-48
2023/04/10 04:48:55;;;;;;;2.20;1.43;;;14.30;99.90;;;14.64;48.23;101608.03;6099018;22;97072;-49
2023/04/10 04:51:21;;;;;;;2.40;1.73;;;14.40;99.90;;;14.74;48.90;101604.06;6121792;22;97183;-47
2023/04/10 04:53:47;;;;;;;2.90;1.57;;;14.60;99.90;;;14.80;48.32;101603.00;6112799;22;110458;-47
2023/04/10 04:56:13;;;;;;;3.10;1.83;;;14.70;99.90;;;14.89;45.05;101600.81;6109050;22;116764;-51
2023/04/10 04:58:38;;;;;;;4.30;2.17;;;14.90;99.90;;;15.02;48.00;101598.56;6120587;22;104807;-48
2023/04/10 05:01:05;;;;;;;2.50;1.63;;;15.00;99.90;;;15.12;47.62;101594.63;6111692;22;103411;-46
2023/04/10 05:06:00;;;;;;;2.70;1.80;;;15.30;99.90;;;15.28;47.24;101604.63;6141769;22;97199;-40
2023/04/10 05:08:26;;;;;;;2.90;1.80;;;15.40;99.90;;;15.31;46.45;101593.88;6117529;22;96954;-39
2023/04/10 05:10:52;;;;;;;2.20;1.53;;;15.40;99.90;;;15.40;46.80;101593.53;6125863;22;100803;-44
2023/04/10 05:13:18;;;;;;;1.70;1.40;;;15.50;99.90;;;15.48;46.63;101591.41;6145031;22;105712;-39
2023/04/10 05:15:44;;;;;;;2.73;1.33;;;15.70;99.90;;;15.51;45.73;101591.28;6145502;22;116355;-39
2023/04/10 05:18:10;;;;;;;6.17;1.80;;;15.60;99.90;;;15.57;46.34;101601.66;6147476;22;98833;-39
2023/04/10 05:20:36;;;;;;;3.77;2.27;;;15.70;99.90;;;15.54;45.16;101595.59;6144937;22;97378;-39
2023/04/10 05:23:03;;;;;;;3.10;2.00;;;15.60;99.60;;;15.49;46.09;101603.78;6143241;22;109597;-39
2023/04/10 05:25:29;;;;;;;2.30;1.80;;;15.60;99.90;;;15.56;46.16;101599.06;6150687;22;97242;-41
2023/04/10 05:27:55;;;;;;;3.57;1.63;;;15.70;99.90;;;15.56;46.37;101599.06;6142534;22;97496;-41
2023/04/10 05:30:21;;;;;;;2.50;1.57;;;15.60;99.90;;;15.53;44.58;101605.38;6150346;22;96840;-39
2023/04/10 05:32:47;;;;;;;2.33;1.60;;;15.60;99.30;;;15.54;46.31;101600.94;6147728;22;97550;-39
2023/04/10 05:35:13;;;;;;;2.50;1.93;;;15.60;99.90;;;15.58;46.08;101603.38;6143460;22;119824;-39
2023/04/10 05:37:39;;;;;;;2.53;1.60;;;15.60;99.90;;;15.61;46.32;101613.94;6150426;22;112084;-39
2023/04/10 05:40:07;;;;;;;2.30;1.67;;;15.70;99.90;;;15.65;45.54;101610.22;6144087;22;97826;-39
2023/04/10 05:42:32;;;;;;;3.27;1.87;;;15.70;99.90;;;15.64;45.13;101607.63;6120478;22;98667;-39
2023/04/10 05:44:58;;;;;;;2.73;2.00;;;15.70;99.90;;;15.62;45.26;101605.03;6148922;22;125609;-39
2023/04/10 05:47:24;;;;;;;2.90;2.20;;;15.70;99.90;;;15.65;45.16;101609.38;6148652;22;100113;-39
2023/04/10 05:49:49;;;;;;;4.13;2.10;;;15.70;99.90;;;15.63;45.67;101611.22;6150198;22;97110;-39
2023/04/10 05:52:15;;;;;;;2.97;2.00;;;15.80;99.90;;;15.66;44.71;101606.63;6150246;22;109916;-40
2023/04/10 05:54:41;;;;;;;2.90;1.70;;;15.80;99.50;;;15.68;45.11;101603.91;6146398;22;97516;-39
2023/04/10 05:57:07;;;;;;;2.40;1.50;;;15.90;99.90;;;15.67;45.70;101611.03;6146317;22;97613;-40
2023/04/10 05:59:33;;;;;;;4.87;1.93;;;15.80;99.90;;;15.74;45.30;101599.19;6120099;22;97279;-40
2023/04/10 06:01:58;;;;;;;3.03;1.67;;;15.90;99.90;;;15.71;45.74;101601.97;6114150;22;121165;-39
2023/04/10 06:04:24;;;;;;;3.77;1.73;;;15.80;99.90;;;15.72;45.46;101606.38;6152728;22;97222;-40
2023/04/10 06:06:50;;;;;;;2.83;1.53;;;15.90;99.90;;;15.69;45.48;101606.50;6118343;22;100378;-39
2023/04/10 06:09:16;;;;;;;4.50;2.53;;;15.90;99.90;;;15.71;44.59;101603.78;6146594;22;97569;-39
2023/04/10 06:11:41;;;;;;;3.13;2.23;;;15.90;99.20;;;15.58;40.33;101598.06;6149420;22;101067;-39
2023/04/10 06:14:07;;;;;;;2.67;1.50;;;15.80;97.00;;;15.61;44.73;101597.09;6114706;22;97552;-39
2023/04/10 06:16:33;;;;;;;3.57;1.77;;;15.80;99.90;;;15.66;45.32;101600.47;6124525;22;97822;-39
2023/04/10 06:18:59;;;;;;;3.10;1.70;;;15.80;99.90;;;15.56;45.73;101589.28;6140925;22;97520;-40
2023/04/10 06:21:25;;;;;;;2.83;1.53;;;15.80;99.90;;;15.63;45.73;101600.59;6149073;22;96958;-39
2023/04/10 06:23:50;;;;;;;5.07;2.33;;;15.80;99.90;;;15.57;43.62;101601.66;6153185;22;96881;-39
2023/04/10 06:26:16;;;;;;;3.20;1.60;;;15.70;99.10;;;15.59;43.45;101597.16;6156220;22;97087;-40
2023/04/10 06:28:43;;;;;;;3.10;1.87;;;15.70;99.10;;;15.60;44.57;101598.91;6152899;22;97172;-39
2023/04/10 06:31:09;;;;;;;2.77;2.00;;;15.70;99.20;;;15.61;44.72;101587.34;6064020;22;98165;-39
2023/04/10 06:33:35;;;;;;;3.90;1.93;;;15.70;99.50;;;15.61;44.97;101587.34;6114050;22;97422;-39
2023/04/10 06:36:02;;;;;;;2.53;1.70;;;15.70;99.80;;;15.56;44.88;101588.44;6146896;22;97566;-39
2023/04/10 06:38:29;;;;;;;2.23;1.30;;;15.60;99.30;;;15.43;45.31;101582.75;6058292;22;97545;-39
2023/04/10 06:40:57;;;;;;;3.90;2.43;;;15.50;99.70;;;15.40;43.58;101593.53;6008422;23;97560;-40
2023/04/10 06:43:45;;;;;;;6.80;2.87;;;15.50;97.80;;;15.40;45.89;101598.84;6115095;22;97166;-39
2023/04/10 06:46:11;;;;;;;2.50;2.10;;;15.50;99.90;;;15.35;44.99;101606.13;5984549;22;97717;-39
2023/04/10 06:48:37;;;;;;;4.23;2.43;;;15.50;99.40;;;15.38;40.77;101606.00;6138482;22;98086;-39
2023/04/10 06:51:03;;;;;;;2.67;1.63;;;15.50;96.70;;;15.36;45.88;101607.88;6148323;22;97323;-39
2023/04/10 06:53:47;;;;;;;3.70;2.13;;;15.40;99.90;;;15.24;44.23;101613.69;6131924;22;98125;-40
2023/04/10 06:56:27;;;;;;;2.80;1.63;;;15.30;98.50;;;15.31;45.36;101612.47;5971174;22;97421;-39
2023/04/10 06:58:53;;;;;;;3.80;2.07;;;15.40;99.90;;;15.23;46.24;101596.00;6026056;23;97568;-40
2023/04/10 07:01:19;;;;;;;2.43;1.53;;;15.30;99.90;;;15.26;46.62;101601.19;6149747;22;117515;-40
2023/04/10 07:03:44;;;;;;;3.80;1.90;;;15.50;99.90;;;15.36;46.45;101587.47;6147162;22;97425;-39
2023/04/10 07:06:11;;;;;;;3.33;1.77;;;15.60;99.90;;;15.47;45.90;101590.53;6117626;22;97712;-39
2023/04/10 07:08:36;;;;;;;2.23;1.60;;;15.70;99.90;;;15.51;45.32;101591.28;6125309;22;97302;-40
2023/04/10 07:11:02;;;;;;;3.07;1.77;;;15.80;99.60;;;15.58;44.51;101582.13;6089573;22;117165;-40
2023/04/10 07:13:28;;;;;;;6.20;2.87;;;15.80;99.30;;;15.56;39.66;101583.97;6149957;22;116294;-39
2023/04/10 07:15:54;;;;;;;3.47;1.80;;;15.70;95.60;;;15.44;45.32;101580.03;6146026;22;98024;-42
2023/04/10 07:18:20;;;;;;;2.83;1.80;;;15.60;99.90;;;15.49;43.92;101582.50;6150893;22;97703;-40
2023/04/10 07:20:45;;;;;;;3.43;2.23;;;15.70;98.50;;;15.51;45.22;101583.31;6154359;22;107368;-39
2023/04/10 07:23:11;;;;;;;4.60;2.73;;;15.70;99.90;;;15.56;43.63;101573.34;6143250;22;97355;-40
2023/04/10 07:25:37;;;;;;;2.47;2.10;;;15.70;97.80;;;15.61;44.93;101582.00;6144908;22;100959;-39
2023/04/10 07:28:03;;;;;;;3.30;1.83;;;15.80;99.90;;;15.61;44.77;101566.06;6150647;22;97611;-39
2023/04/10 07:30:28;;;;;;;3.70;2.03;;;15.80;99.50;;;15.57;44.24;101564.44;6142512;22;98129;-39
2023/04/10 07:32:54;;;;;;;5.07;2.50;;;15.70;98.60;;;15.49;39.36;101550.59;6144680;22;111719;-39
2023/04/10 07:35:20;;;;;;;3.17;1.90;;;15.60;95.40;;;15.50;42.14;101557.66;6148372;22;111088;-40
2023/04/10 07:37:50;;;;;;;2.57;2.00;;;15.60;97.80;;;15.51;43.48;101567.34;6148610;22;97137;-39
2023/04/10 07:40:16;;;;;;;4.93;2.47;;;15.60;98.20;;;15.46;38.87;101548.06;6148248;22;98140;-39
2023/04/10 07:42:42;;;;;;;3.57;1.70;;;15.60;94.60;;;15.44;42.75;101547.25;6150077;22;97122;-39
2023/04/10 07:45:08;;;;;;;3.57;1.50;;;15.60;97.90;;;15.42;45.27;101555.31;6141549;22;99330;-41
2023/04/10 07:47:34;;;;;;;4.30;2.40;;;15.60;99.90;;;15.46;41.13;101556.03;6153561;22;97127;-40
2023/04/10 07:50:00;;;;;;;3.57;1.93;;;15.60;96.80;;;15.45;44.95;101549.84;6114502;22;115574;-39
2023/04/10 07:52:26;;;;;;;3.10;1.90;;;15.60;99.40;;;15.48;43.91;101549.75;6146432;22;97831;-39
2023/04/10 07:54:51;;;;;;;4.23;2.20;;;15.60;97.50;;;15.57;40.47;101536.97;6149469;22;97645;-39
2023/04/10 07:57:17;;;;;;;3.30;2.47;;;15.70;95.90;;;15.53;38.69;101538.91;6116196;22;104236;-39
2023/04/10 07:59:43;;;;;;;2.70;1.67;;;15.60;94.30;;;15.54;45.34;101531.78;6151841;22;97347;-40
2023/04/10 08:02:09;;;;;;;3.07;1.90;;;15.70;99.90;;;15.63;43.75;101534.97;6146299;22;97667;-39
2023/04/10 08:04:35;;;;;;;4.20;1.80;;;15.80;97.90;;;15.68;42.39;101540.06;6146030;22;97261;-39
2023/04/10 08:07:01;;;;;;;5.43;2.30;;;15.90;98.50;;;15.64;41.53;101528.72;6150058;22;97387;-39
2023/04/10 08:09:26;;;;;;;3.47;2.27;;;15.80;95.90;;;15.64;43.92;101528.72;6131496;22;97154;-39
2023/04/10 08:11:52;;;;;;;2.63;1.60;;;15.70;97.80;;;15.62;44.71;101525.25;6118503;22;121746;-39
2023/04/10 08:14:18;;;;;;;3.00;1.83;;;15.80;99.00;;;15.60;44.51;101520.91;6121608;22;113666;-40
2023/04/10 08:16:44;;;;;;;3.07;1.90;;;15.70;98.50;;;15.66;40.69;101520.66;6119018;22;98203;-46
2023/04/10 08:19:09;;;;;;;3.90;2.10;;;15.80;95.80;;;15.58;40.07;101522.75;6119511;22;99068;-46
2023/04/10 08:21:35;;;;;;;3.40;1.57;;;15.70;95.90;;;15.63;42.39;101519.00;6116087;22;97241;-42
2023/04/10 08:24:02;;;;;;;3.13;2.00;;;15.80;97.90;;;15.69;44.38;101518.72;6116136;22;97833;-48
2023/04/10 08:26:29;;;;;;;1.97;1.50;;;15.80;98.30;;;15.71;44.89;101508.88;6126738;22;97988;-48
2023/04/10 08:28:57;;;;;;;2.33;1.13;;;15.90;99.60;;;15.69;44.22;101500.13;6113854;22;98289;-47
2023/04/10 08:31:26;;;;;;;2.77;1.63;;;16.00;98.80;;;15.77;44.05;101495.34;6118998;22;98843;-47
2023/04/10 08:33:52;;;;;;;2.57;1.87;;;16.00;97.80;;;15.83;40.64;101502.16;6120613;22;97300;-48
2023/04/10 08:36:18;;;;;;;2.87;1.70;;;16.00;96.20;;;15.84;43.75;101511.88;6114947;22;97376;-45
2023/04/10 08:38:45;;;;;;;4.43;2.23;;;16.00;97.90;;;15.79;38.78;101499.72;6117510;22;98165;-45
2023/04/10 08:41:16;;;;;;;5.13;1.87;;;16.00;94.40;;;15.68;43.33;101501.03;6114161;22;97762;-48
2023/04/10 08:43:44;;;;;;;2.87;1.93;;;15.80;97.50;;;15.68;39.92;101493.06;6114746;22;97429;-42
2023/04/10 08:46:10;;;;;;;3.43;1.87;;;15.90;95.70;;;15.77;38.88;101492.69;6115902;22;97753;-47
2023/04/10 08:48:52;;;;;;;3.00;1.87;;;15.90;94.30;;;15.83;42.19;101480.03;6117392;22;97405;-47
2023/04/10 08:51:26;;;;;;;2.13;1.30;;;15.90;93.30;;;15.89;43.08;101485.06;6081299;22;97350;-48
2023/04/10 08:53:57;;;;;;;2.57;1.60;;;16.00;96.90;;;15.93;42.78;101481.34;6091424;22;98011;-45
2023/04/10 08:56:24;;;;;;;1.77;1.57;;;16.10;97.90;;;15.99;43.34;101471.28;6093394;22;97891;-45
2023/04/10 08:58:51;;;;;;;2.87;1.50;;;16.20;97.50;;;16.03;38.70;101472.88;6090284;22;97993;-43
2023/04/10 09:01:20;;;;;;;3.73;1.90;;;16.20;94.10;;;16.00;36.57;101472.16;6088125;22;97345;-47
2023/04/10 09:03:47;;;;;;;1.03;0.90;;;16.20;92.30;;;16.02;43.54;101452.50;6124510;22;97224;-44
2023/04/10 09:06:13;;;;;;;2.43;1.40;;;16.20;97.90;;;16.04;43.48;101453.28;6117951;22;99662;-44
2023/04/10 09:08:38;;;;;;;2.40;1.50;;;16.20;97.40;;;16.12;43.43;101449.44;6119852;22;99143;-45
2023/04/10 09:11:05;;;;;;;2.07;1.53;;;16.30;97.90;;;16.11;39.16;101448.56;6116412;22;98026;-44
2023/04/10 09:13:40;;;;;;;2.90;1.50;;;16.30;95.00;;;16.12;38.72;101444.97;6121357;22;97427;-44
2023/04/10 09:16:08;;;;;;;1.93;1.13;;;16.30;94.30;;;16.11;43.11;101432.59;6119520;22;97217;-50
2023/04/10 09:19:01;;;;;;;2.30;1.50;;;16.30;97.20;;;16.08;43.95;101431.88;6107062;22;98112;-42
2023/04/10 09:21:27;;;;;;;3.50;1.50;;;16.30;98.20;;;16.12;43.87;101421.03;6111725;22;101663;-48
2023/04/10 09:24:00;;;;;;;2.37;1.63;;;16.40;98.00;;;16.18;40.62;101427.84;6119445;22;106363;-46
2023/04/10 09:26:31;;;;;;;1.83;1.33;;;16.40;96.60;;;16.28;42.69;101424.69;6091863;22;97199;-45
2023/04/10 09:29:02;;;;;;;1.50;1.27;;;16.50;96.60;;;16.25;39.10;101430.16;6112242;22;98382;-48
2023/04/10 09:31:37;;;;;;;2.70;1.90;;;16.50;95.30;;;16.35;37.75;101436.78;6117810;22;97660;-41
2023/04/10 09:34:10;;;;;;;2.50;1.60;;;16.50;93.40;;;16.32;42.21;101431.59;6118278;22;97363;-43
2023/04/10 09:36:36;;;;;;;2.67;1.77;;;16.50;96.10;;;16.36;39.73;101443.84;6124460;22;97955;-38
2023/04/10 09:39:04;;;;;;;3.37;1.90;;;16.50;93.50;;;16.43;39.76;101440.88;6115065;22;97834;-38
2023/04/10 09:41:30;;;;;;;1.37;0.93;;;16.60;93.20;;;16.44;40.60;101434.59;6125142;22;97423;-39
2023/04/10 09:44:09;;;;;;;3.37;1.40;;;16.60;95.80;;;16.50;35.82;101434.34;6115650;22;97300;-38
2023/04/10 09:46:35;;;;;;;2.67;1.40;;;16.60;91.20;;;16.45;36.26;101431.88;6120972;22;97345;-38
2023/04/10 09:49:03;;;;;;;2.30;1.20;;;16.60;91.60;;;16.47;42.45;101435.31;6088073;22;98135;-38
2023/04/10 09:51:34;;;;;;;3.40;1.37;;;16.60;96.30;;;16.48;37.05;101417.53;6104021;22;97700;-38
2023/04/10 09:54:02;;;;;;;2.03;1.53;;;16.60;91.90;;;16.49;36.22;101417.50;6093915;22;97839;-38
2023/04/10 09:56:30;;;;;;;2.73;1.50;;;16.60;91.30;;;16.51;42.53;101404.97;6123412;22;97501;-42
2023/04/10 09:59:00;;;;;;;2.17;1.20;;;16.60;96.10;;;16.54;37.21;101409.28;6117959;22;98253;-42
2023/04/10 10:01:33;;;;;;;2.90;1.63;;;16.70;91.90;;;16.43;43.24;101398.28;6095735;22;99031;-46
2023/04/10 10:04:03;;;;;;;1.77;1.33;;;16.70;97.10;;;16.47;42.47;101402.50;6119835;22;98218;-43
2023/04/10 10:06:33;;;;;;;2.87;1.70;;;16.70;95.90;;;16.56;41.40;101402.06;6127738;22;97531;-40
2023/04/10 10:09:04;;;;;;;2.80;1.53;;;16.70;95.30;;;16.59;35.68;101401.91;6116567;22;97860;-40
2023/04/10 10:11:34;;;;;;;2.73;1.23;;;16.80;91.20;;;16.54;41.95;101393.28;6121015;22;97859;-38
2023/04/10 10:14:08;;;;;;;2.40;1.50;;;16.70;95.30;;;16.61;37.18;101389.38;6095164;22;97210;-38
2023/04/10 10:16:38;;;;;;;1.60;1.03;;;16.80;92.50;;;16.69;38.73;101389.91;6120590;22;97833;-38
2023/04/10 10:19:53;;;;;;;2.20;1.10;;;16.80;92.80;;;16.71;38.33;101389.81;6086522;22;97375;-38
2023/04/10 10:22:21;;;;;;;2.20;1.10;;;16.80;92.20;;;16.58;42.44;101379.75;6064456;22;101600;-38
2023/04/10 10:24:48;;;;;;;2.37;1.33;;;16.80;96.20;;;16.59;42.95;101375.28;6098944;22;97271;-37
2023/04/10 10:27:15;;;;;;;2.43;1.47;;;16.80;96.70;;;16.75;39.42;101364.75;6097050;22;97751;-38
2023/04/10 10:29:46;;;;;;;1.80;1.50;;;16.90;93.50;;;16.69;41.93;101355.28;6094350;22;99128;-38
2023/04/10 10:32:13;;;;;;;1.60;0.97;;;16.90;95.80;;;16.78;36.30;101353.94;6122278;22;97124;-38
2023/04/10 10:34:40;;;;;;;3.10;1.43;;;16.90;91.00;;;16.68;42.03;101353.56;6125084;22;98015;-38
2023/04/10 10:37:06;;;;;;;2.50;1.50;;;16.90;95.90;;;16.55;43.06;101336.44;6092205;22;96966;-38
2023/04/10 10:39:43;;;;;;;2.07;1.10;;;16.90;96.60;;;16.54;42.63;101340.88;6126706;22;98043;-39